Time,TemperatureF,DewpointF,PressureIn,WindDirection,WindDirectionDegrees,WindSpeedMPH,WindSpeedGustMPH,Humidity,HourlyPrecipIn,Conditions,Clouds,dailyrainin,SoftwareType,DateUTC
2013-02-05 00:01:00,15.0,9.0,-100.00,South,190,6.0,6.0,76,0.00,,,-99.99,,2013-02-05 06:01:00,
2013-02-05 00:11:00,15.0,9.0,-100.00,South,190,6.0,6.0,76,0.00,,,-99.99,,2013-02-05 06:11:00,
2013-02-05 00:21:00,15.0,9.0,-100.00,South,190,4.0,6.0,76,0.00,,,-99.99,,2013-02-05 06:21:00,
2013-02-05 00:32:00,15.0,9.0,-100.00,SSW,200,4.0,7.0,76,0.00,,,-99.99,,2013-02-05 06:32:00,
2013-02-05 00:42:00,15.0,9.0,-100.00,SSW,200,4.0,7.0,76,0.00,,,-99.99,,2013-02-05 06:42:00,
2013-02-05 00:51:00,15.0,9.0,-100.00,WSW,250,3.0,4.0,77,0.00,,,-99.99,,2013-02-05 06:51:00,
2013-02-05 01:01:00,15.0,9.0,-100.00,WSW,250,3.0,4.0,77,0.00,,,-99.99,,2013-02-05 07:01:00,
2013-02-05 01:11:00,15.0,9.0,-100.00,SW,225,4.0,6.0,77,0.00,,,-99.99,,2013-02-05 07:11:00,
2013-02-05 01:22:00,15.0,10.0,-100.00,SW,230,4.0,6.0,77,0.00,,,-99.99,,2013-02-05 07:22:00,
2013-02-05 01:31:00,16.0,10.0,-100.00,SW,230,6.0,7.0,78,0.00,,,-99.99,,2013-02-05 07:31:00,
2013-02-05 01:41:00,16.0,10.0,-100.00,SW,230,6.0,7.0,78,0.00,,,-99.99,,2013-02-05 07:41:00,
2013-02-05 01:51:00,17.0,11.0,-100.00,SW,215,7.0,9.0,78,0.00,,,-99.99,,2013-02-05 07:51:00,
2013-02-05 02:01:00,17.0,11.0,-100.00,SW,225,7.0,9.0,78,0.00,,,-99.99,,2013-02-05 08:01:00,
2013-02-05 02:11:00,17.0,12.0,-100.00,SW,220,7.0,10.0,78,0.00,,,-99.99,,2013-02-05 08:11:00,
2013-02-05 02:21:00,17.0,12.0,-100.00,SW,225,4.0,9.0,79,0.00,,,-99.99,,2013-02-05 08:21:00,
2013-02-05 02:31:00,18.0,13.0,-100.00,SW,235,6.0,9.0,79,0.00,,,-99.99,,2013-02-05 08:31:00,
2013-02-05 02:41:00,18.0,13.0,-100.00,SW,235,6.0,9.0,79,0.00,,,-99.99,,2013-02-05 08:41:00,
2013-02-05 02:52:00,18.0,13.0,-100.00,SW,230,4.0,9.0,79,0.00,,,-99.99,,2013-02-05 08:52:00,
2013-02-05 03:02:00,18.0,13.0,-100.00,SW,230,4.0,9.0,79,0.00,,,-99.99,,2013-02-05 09:02:00,
2013-02-05 03:11:00,18.0,13.0,-100.00,WSW,245,4.0,9.0,79,0.00,,,-99.99,,2013-02-05 09:11:00,
2013-02-05 03:21:00,18.0,13.0,-100.00,WSW,245,4.0,9.0,79,0.00,,,-99.99,,2013-02-05 09:21:00,
2013-02-05 03:32:00,19.0,13.0,-100.00,SW,230,4.0,6.0,78,0.00,,,-99.99,,2013-02-05 09:32:00,
2013-02-05 03:42:00,19.0,13.0,-100.00,SW,230,4.0,6.0,78,0.00,,,-99.99,,2013-02-05 09:42:00,
2013-02-05 03:51:00,19.0,14.0,-100.00,WSW,250,6.0,9.0,78,0.00,,,-99.99,,2013-02-05 09:51:00,
2013-02-05 04:02:00,19.0,14.0,-100.00,WSW,250,6.0,9.0,78,0.00,,,-99.99,,2013-02-05 10:02:00,
2013-02-05 04:11:00,19.0,14.0,-100.00,WSW,240,6.0,7.0,78,0.00,,,-99.99,,2013-02-05 10:11:00,
2013-02-05 04:21:00,19.0,14.0,-100.00,SW,235,6.0,8.0,78,0.00,,,-99.99,,2013-02-05 10:21:00,
2013-02-05 04:32:00,20.0,14.0,-100.00,SW,220,5.0,7.0,78,0.00,,,-99.99,,2013-02-05 10:32:00,
2013-02-05 04:42:00,20.0,14.0,-100.00,SW,220,5.0,7.0,78,0.00,,,-99.99,,2013-02-05 10:42:00,
2013-02-05 04:52:00,20.0,15.0,-100.00,WSW,240,6.0,8.0,78,0.00,,,-99.99,,2013-02-05 10:52:00,
2013-02-05 05:01:00,20.0,15.0,-100.00,WSW,240,6.0,8.0,78,0.00,,,-99.99,,2013-02-05 11:01:00,
2013-02-05 05:11:00,20.0,15.0,-100.00,WSW,240,6.0,10.0,78,0.00,,,-99.99,,2013-02-05 11:11:00,
2013-02-05 05:22:00,20.0,15.0,-100.00,SW,230,7.0,11.0,78,0.00,,,-99.99,,2013-02-05 11:22:00,
2013-02-05 05:32:00,21.0,15.0,-100.00,SW,235,6.0,11.0,78,0.00,,,-99.99,,2013-02-05 11:32:00,
2013-02-05 05:41:00,21.0,15.0,-100.00,SW,235,6.0,11.0,78,0.00,,,-99.99,,2013-02-05 11:41:00,
2013-02-05 05:52:00,21.0,16.0,-100.00,SW,235,7.0,10.0,78,0.00,,,-99.99,,2013-02-05 11:52:00,
2013-02-05 06:01:00,21.0,16.0,-100.00,SW,235,7.0,10.0,78,0.00,,,-99.99,,2013-02-05 12:01:00,
2013-02-05 06:12:00,22.0,16.0,-100.00,WSW,245,6.0,9.0,78,0.00,,,-99.99,,2013-02-05 12:12:00,
2013-02-05 06:21:00,22.0,16.0,-100.00,West,260,7.0,10.0,78,0.00,,,-99.99,,2013-02-05 12:21:00,
2013-02-05 06:32:00,22.0,17.0,-100.00,WSW,250,6.0,11.0,78,0.00,,,-99.99,,2013-02-05 12:32:00,
2013-02-05 06:42:00,22.0,17.0,-100.00,WSW,240,7.0,12.0,78,0.00,,,-99.99,,2013-02-05 12:42:00,
2013-02-05 06:52:00,22.0,17.0,-100.00,WSW,250,8.0,12.0,79,0.00,,,-99.99,,2013-02-05 12:52:00,
2013-02-05 07:01:00,22.0,17.0,-100.00,WSW,250,8.0,12.0,79,0.00,,,-99.99,,2013-02-05 13:01:00,
2013-02-05 07:12:00,22.0,17.0,-100.00,SW,235,8.0,14.0,79,0.00,,,-99.99,,2013-02-05 13:12:00,
2013-02-05 07:21:00,22.0,17.0,-100.00,SW,235,8.0,12.0,80,0.00,,,-99.99,,2013-02-05 13:21:00,
2013-02-05 07:32:00,22.0,17.0,-100.00,WSW,240,7.0,11.0,80,0.00,,,-99.99,,2013-02-05 13:32:00,
2013-02-05 07:42:00,22.0,17.0,-100.00,WSW,240,7.0,11.0,80,0.00,,,-99.99,,2013-02-05 13:42:00,
2013-02-05 07:51:00,22.0,17.0,-100.00,WSW,240,8.0,14.0,81,0.00,,,-99.99,,2013-02-05 13:51:00,
2013-02-05 08:01:00,22.0,17.0,-100.00,WSW,240,8.0,14.0,81,0.00,,,-99.99,,2013-02-05 14:01:00,
2013-02-05 08:12:00,22.0,18.0,-100.00,WSW,245,9.0,12.0,81,0.00,,,-99.99,,2013-02-05 14:12:00,
2013-02-05 08:21:00,23.0,18.0,-100.00,WSW,250,7.0,12.0,81,0.00,,,-99.99,,2013-02-05 14:21:00,
2013-02-05 08:31:00,24.0,20.0,-100.00,WSW,255,10.0,16.0,81,0.00,,,-99.99,,2013-02-05 14:31:00,
2013-02-05 08:42:00,24.0,20.0,-100.00,WSW,255,10.0,16.0,81,0.00,,,-99.99,,2013-02-05 14:42:00,
2013-02-05 08:52:00,25.0,20.0,-100.00,West,260,16.0,21.0,80,0.00,,,-99.99,,2013-02-05 14:52:00,
2013-02-05 09:02:00,25.0,20.0,-100.00,West,260,16.0,21.0,80,0.00,,,-99.99,,2013-02-05 15:02:00,
2013-02-05 09:11:00,26.0,21.0,-100.00,West,265,14.0,19.0,79,0.00,,,-99.99,,2013-02-05 15:11:00,
2013-02-05 09:21:00,26.0,21.0,-100.00,West,260,15.0,20.0,78,0.00,,,-99.99,,2013-02-05 15:21:00,
2013-02-05 09:32:00,28.0,22.0,-100.00,West,270,12.0,17.0,76,0.00,,,-99.99,,2013-02-05 15:32:00,
2013-02-05 09:41:00,28.0,22.0,-100.00,West,270,12.0,17.0,76,0.00,,,-99.99,,2013-02-05 15:41:00,
2013-02-05 09:52:00,29.0,22.0,-100.00,West,275,14.0,18.0,73,0.00,,,-99.99,,2013-02-05 15:52:00,
2013-02-05 10:01:00,29.0,22.0,-100.00,West,275,14.0,18.0,73,0.00,,,-99.99,,2013-02-05 16:01:00,
2013-02-05 10:11:00,29.0,22.0,-100.00,WNW,285,17.0,23.0,72,0.00,,,-99.99,,2013-02-05 16:11:00,
2013-02-05 10:22:00,30.0,22.0,-100.00,WNW,285,17.0,21.0,71,0.00,,,-99.99,,2013-02-05 16:22:00,
2013-02-05 10:32:00,31.0,22.0,-100.00,West,280,17.0,23.0,69,0.00,,,-99.99,,2013-02-05 16:32:00,
2013-02-05 10:42:00,31.0,22.0,-100.00,West,280,17.0,23.0,69,0.00,,,-99.99,,2013-02-05 16:42:00,
2013-02-05 10:51:00,31.0,22.0,-100.00,WNW,285,17.0,23.0,68,0.00,,,-99.99,,2013-02-05 16:51:00,
2013-02-05 11:01:00,31.0,22.0,-100.00,WNW,285,17.0,23.0,68,0.00,,,-99.99,,2013-02-05 17:01:00,
2013-02-05 11:11:00,31.0,22.0,-100.00,WNW,295,17.0,24.0,69,0.00,,,-99.99,,2013-02-05 17:11:00,
2013-02-05 11:21:00,32.0,23.0,-100.00,WNW,300,18.0,23.0,69,0.00,,,-99.99,,2013-02-05 17:21:00,
2013-02-05 11:32:00,33.0,23.0,-100.00,WNW,300,17.0,23.0,66,0.00,,,-99.99,,2013-02-05 17:32:00,
2013-02-05 11:42:00,33.0,23.0,-100.00,WNW,300,17.0,23.0,66,0.00,,,-99.99,,2013-02-05 17:42:00,
2013-02-05 11:52:00,33.0,24.0,-100.00,WNW,300,19.0,24.0,67,0.00,,,-99.99,,2013-02-05 17:52:00,
2013-02-05 12:02:00,33.0,24.0,-100.00,WNW,300,19.0,24.0,67,0.00,,,-99.99,,2013-02-05 18:02:00,
2013-02-05 12:11:00,34.0,24.0,-100.00,WNW,300,17.0,22.0,66,0.00,,,-99.99,,2013-02-05 18:11:00,
2013-02-05 12:21:00,34.0,24.0,-100.00,NW,305,16.0,21.0,65,0.00,,,-99.99,,2013-02-05 18:21:00,
2013-02-05 12:32:00,35.0,25.0,-100.00,NW,315,14.0,21.0,65,0.00,,,-99.99,,2013-02-05 18:32:00,
2013-02-05 12:42:00,35.0,25.0,-100.00,NW,315,14.0,21.0,65,0.00,,,-99.99,,2013-02-05 18:42:00,
2013-02-05 12:52:00,34.0,24.0,-100.00,NW,325,12.0,22.0,64,0.00,,,-99.99,,2013-02-05 18:52:00,
2013-02-05 13:02:00,34.0,24.0,-100.00,NW,325,12.0,22.0,64,0.00,,,-99.99,,2013-02-05 19:02:00,
2013-02-05 13:11:00,34.0,23.0,-100.00,NNW,330,17.0,22.0,65,0.00,,,-99.99,,2013-02-05 19:11:00,
2013-02-05 13:21:00,34.0,24.0,-100.00,NW,320,16.0,21.0,67,0.00,,,-99.99,,2013-02-05 19:21:00,
2013-02-05 13:32:00,34.0,24.0,-100.00,NW,325,12.0,20.0,67,0.00,,,-99.99,,2013-02-05 19:32:00,
2013-02-05 13:42:00,34.0,24.0,-100.00,NW,325,12.0,20.0,67,0.00,,,-99.99,,2013-02-05 19:42:00,
2013-02-05 13:52:00,34.0,24.0,-100.00,NNW,335,14.0,18.0,67,0.00,,,-99.99,,2013-02-05 19:52:00,
2013-02-05 14:01:00,34.0,24.0,-100.00,NNW,335,14.0,18.0,67,0.00,,,-99.99,,2013-02-05 20:01:00,
2013-02-05 14:11:00,35.0,25.0,-100.00,NW,325,12.0,17.0,67,0.00,,,-99.99,,2013-02-05 20:11:00,
2013-02-05 14:21:00,35.0,25.0,-100.00,NW,325,17.0,21.0,67,0.00,,,-99.99,,2013-02-05 20:21:00,
2013-02-05 14:32:00,35.0,26.0,-100.00,NNW,330,12.0,17.0,68,0.00,,,-99.99,,2013-02-05 20:32:00,
2013-02-05 14:42:00,35.0,26.0,-100.00,NNW,330,12.0,17.0,68,0.00,,,-99.99,,2013-02-05 20:42:00,
2013-02-05 14:52:00,35.0,26.0,-100.00,NNW,330,17.0,21.0,67,0.00,,,-99.99,,2013-02-05 20:52:00,
2013-02-05 15:02:00,35.0,26.0,-100.00,NNW,330,17.0,21.0,67,0.00,,,-99.99,,2013-02-05 21:02:00,
2013-02-05 15:11:00,36.0,26.0,-100.00,NNW,340,17.0,23.0,68,0.00,,,-99.99,,2013-02-05 21:11:00,
2013-02-05 15:21:00,35.0,26.0,-100.00,NNW,340,17.0,23.0,68,0.00,,,-99.99,,2013-02-05 21:21:00,
2013-02-05 15:32:00,35.0,26.0,-100.00,North,0,19.0,26.0,69,0.00,,,-99.99,,2013-02-05 21:32:00,
2013-02-05 15:42:00,35.0,26.0,-100.00,North,0,19.0,26.0,69,0.00,,,-99.99,,2013-02-05 21:42:00,
2013-02-05 15:51:00,35.0,26.0,-100.00,North,0,16.0,26.0,69,0.00,,,-99.99,,2013-02-05 21:51:00,
2013-02-05 16:01:00,35.0,26.0,-100.00,North,0,16.0,26.0,69,0.00,,,-99.99,,2013-02-05 22:01:00,
2013-02-05 16:11:00,35.0,26.0,-100.00,North,0,15.0,26.0,70,0.00,,,-99.99,,2013-02-05 22:11:00,
2013-02-05 16:21:00,35.0,26.0,-100.00,North,0,14.0,19.0,71,0.00,,,-99.99,,2013-02-05 22:21:00,
2013-02-05 16:32:00,35.0,27.0,-100.00,North,0,10.0,17.0,73,0.00,,,-99.99,,2013-02-05 22:32:00,
2013-02-05 16:42:00,35.0,27.0,-100.00,North,0,10.0,17.0,73,0.00,,,-99.99,,2013-02-05 22:42:00,
2013-02-05 16:51:00,35.0,27.0,-100.00,North,0,8.0,15.0,73,0.00,,,-99.99,,2013-02-05 22:51:00,
2013-02-05 17:02:00,35.0,27.0,-100.00,North,0,8.0,15.0,73,0.00,,,-99.99,,2013-02-05 23:02:00,
2013-02-05 17:11:00,35.0,27.0,-100.00,North,5,7.0,11.0,73,0.00,,,-99.99,,2013-02-05 23:11:00,
2013-02-05 17:21:00,35.0,27.0,-100.00,North,0,6.0,9.0,74,0.00,,,-99.99,,2013-02-05 23:21:00,
2013-02-05 17:32:00,35.0,27.0,-100.00,NNW,340,7.0,9.0,74,0.00,,,-99.99,,2013-02-05 23:32:00,
2013-02-05 17:42:00,35.0,27.0,-100.00,NNW,340,7.0,9.0,74,0.00,,,-99.99,,2013-02-05 23:42:00,
2013-02-05 17:52:00,35.0,27.0,-100.00,NNW,335,9.0,13.0,73,0.00,,,-99.99,,2013-02-05 23:52:00,
2013-02-05 18:02:00,35.0,27.0,-100.00,NNW,335,9.0,13.0,73,0.00,,,-99.99,,2013-02-06 00:02:00,
2013-02-05 18:11:00,35.0,27.0,-100.00,NNW,340,9.0,13.0,72,0.00,,,-99.99,,2013-02-06 00:11:00,
2013-02-05 18:21:00,35.0,27.0,-100.00,NNW,335,11.0,14.0,72,0.00,,,-99.99,,2013-02-06 00:21:00,
2013-02-05 18:32:00,35.0,27.0,-100.00,North,0,7.0,13.0,72,0.00,,,-99.99,,2013-02-06 00:32:00,
2013-02-05 18:42:00,35.0,27.0,-100.00,North,0,7.0,13.0,72,0.00,,,-99.99,,2013-02-06 00:42:00,
2013-02-05 18:52:00,35.0,27.0,-100.00,North,355,8.0,12.0,72,0.00,,,-99.99,,2013-02-06 00:52:00,
2013-02-05 19:02:00,35.0,27.0,-100.00,North,355,8.0,12.0,72,0.00,,,-99.99,,2013-02-06 01:02:00,
2013-02-05 19:11:00,35.0,27.0,-100.00,North,0,8.0,11.0,74,0.00,,,-99.99,,2013-02-06 01:11:00,
2013-02-05 19:21:00,34.0,27.0,-100.00,NNE,15,10.0,12.0,74,0.00,,,-99.99,,2013-02-06 01:21:00,
2013-02-05 19:32:00,34.0,26.0,-100.00,North,10,12.0,16.0,73,0.00,,,-99.99,,2013-02-06 01:32:00,
2013-02-05 19:42:00,34.0,26.0,-100.00,North,10,12.0,16.0,73,0.00,,,-99.99,,2013-02-06 01:42:00,
2013-02-05 19:52:00,34.0,25.0,-100.00,North,5,11.0,16.0,71,0.00,,,-99.99,,2013-02-06 01:52:00,
2013-02-05 20:01:00,34.0,25.0,-100.00,North,5,11.0,16.0,71,0.00,,,-99.99,,2013-02-06 02:01:00,
2013-02-05 20:11:00,33.0,25.0,-100.00,North,10,11.0,15.0,70,0.00,,,-99.99,,2013-02-06 02:11:00,
2013-02-05 20:22:00,33.0,25.0,-100.00,NNE,15,12.0,16.0,70,0.00,,,-99.99,,2013-02-06 02:22:00,
2013-02-05 20:32:00,33.0,24.0,-100.00,North,0,11.0,15.0,69,0.00,,,-99.99,,2013-02-06 02:32:00,
2013-02-05 20:42:00,33.0,24.0,-100.00,North,0,11.0,15.0,69,0.00,,,-99.99,,2013-02-06 02:42:00,
2013-02-05 20:52:00,33.0,24.0,-100.00,North,5,8.0,11.0,69,0.00,,,-99.99,,2013-02-06 02:52:00,
2013-02-05 21:02:00,33.0,24.0,-100.00,North,5,8.0,11.0,69,0.00,,,-99.99,,2013-02-06 03:02:00,
2013-02-05 21:12:00,33.0,24.0,-100.00,North,5,8.0,11.0,69,0.00,,,-99.99,,2013-02-06 03:12:00,
2013-02-05 21:22:00,33.0,24.0,-100.00,North,5,7.0,11.0,70,0.00,,,-99.99,,2013-02-06 03:22:00,
2013-02-05 21:32:00,32.0,24.0,-100.00,North,0,4.0,6.0,71,0.00,,,-99.99,,2013-02-06 03:32:00,
2013-02-05 21:42:00,32.0,24.0,-100.00,North,0,4.0,6.0,71,0.00,,,-99.99,,2013-02-06 03:42:00,
2013-02-05 21:52:00,31.0,23.0,-100.00,North,0,3.0,6.0,72,0.00,,,-99.99,,2013-02-06 03:52:00,
2013-02-05 22:02:00,31.0,23.0,-100.00,North,0,3.0,6.0,72,0.00,,,-99.99,,2013-02-06 04:02:00,
2013-02-05 22:11:00,32.0,24.0,-100.00,NNW,335,4.0,6.0,72,0.00,,,-99.99,,2013-02-06 04:11:00,
2013-02-05 22:21:00,32.0,24.0,-100.00,NNW,330,6.0,7.0,73,0.00,,,-99.99,,2013-02-06 04:21:00,
2013-02-05 22:32:00,32.0,24.0,-100.00,NNW,330,6.0,7.0,73,0.00,,,-99.99,,2013-02-06 04:32:00,
2013-02-05 22:42:00,31.0,24.0,-100.00,North,0,6.0,9.0,73,0.00,,,-99.99,,2013-02-06 04:42:00,
2013-02-05 22:51:00,31.0,24.0,-100.00,NNW,335,6.0,7.0,74,0.00,,,-99.99,,2013-02-06 04:51:00,
2013-02-05 23:02:00,31.0,24.0,-100.00,NNW,335,6.0,7.0,74,0.00,,,-99.99,,2013-02-06 05:02:00,
2013-02-05 23:12:00,31.0,24.0,-100.00,North,355,7.0,11.0,74,0.00,,,-99.99,,2013-02-06 05:12:00,
2013-02-05 23:22:00,31.0,24.0,-100.00,North,0,5.0,9.0,74,0.00,,,-99.99,,2013-02-06 05:22:00,
2013-02-05 23:31:00,31.0,24.0,-100.00,North,355,6.0,9.0,75,0.00,,,-99.99,,2013-02-06 05:31:00,
2013-02-05 23:41:00,31.0,24.0,-100.00,North,355,6.0,9.0,75,0.00,,,-99.99,,2013-02-06 05:41:00,
2013-02-05 23:52:00,30.0,23.0,-100.00,North,0,7.0,9.0,75,0.00,,,-99.99,,2013-02-06 05:52:00,